sensor_id;sensor_type;location;lat;lon;timestamp;P1;durP1;ratioP1;P2;durP2;ratioP2
22713;SDS011;11524;50.846;4.326;2022-12-18T00:01:34;8.85;;;5.38;;
22713;SDS011;11524;50.846;4.326;2022-12-18T00:04:02;7.68;;;5.78;;
22713;SDS011;11524;50.846;4.326;2022-12-18T00:06:29;7.78;;;5.82;;
22713;SDS011;11524;50.846;4.326;2022-12-18T00:08:56;7.18;;;5.05;;
22713;SDS011;11524;50.846;4.326;2022-12-18T00:11:23;11.27;;;6.75;;
22713;SDS011;11524;50.846;4.326;2022-12-18T00:13:51;9.75;;;6.80;;
22713;SDS011;11524;50.846;4.326;2022-12-18T00:16:20;8.20;;;5.97;;
22713;SDS011;11524;50.846;4.326;2022-12-18T00:18:46;9.52;;;6.07;;
22713;SDS011;11524;50.846;4.326;2022-12-18T00:21:13;10.68;;;6.88;;
22713;SDS011;11524;50.846;4.326;2022-12-18T00:23:39;9.73;;;6.38;;
22713;SDS011;11524;50.846;4.326;2022-12-18T00:26:08;8.38;;;5.57;;
22713;SDS011;11524;50.846;4.326;2022-12-18T00:28:36;11.05;;;7.53;;
22713;SDS011;11524;50.846;4.326;2022-12-18T00:31:08;9.68;;;5.97;;
22713;SDS011;11524;50.846;4.326;2022-12-18T00:33:35;11.30;;;7.80;;
22713;SDS011;11524;50.846;4.326;2022-12-18T00:36:06;9.85;;;6.85;;
22713;SDS011;11524;50.846;4.326;2022-12-18T00:38:35;7.97;;;5.55;;
22713;SDS011;11524;50.846;4.326;2022-12-18T00:41:02;7.35;;;5.25;;
22713;SDS011;11524;50.846;4.326;2022-12-18T00:43:28;10.30;;;7.47;;
22713;SDS011;11524;50.846;4.326;2022-12-18T00:45:53;9.88;;;6.70;;
22713;SDS011;11524;50.846;4.326;2022-12-18T00:48:19;8.27;;;6.38;;
22713;SDS011;11524;50.846;4.326;2022-12-18T00:50:45;9.68;;;6.80;;
22713;SDS011;11524;50.846;4.326;2022-12-18T00:53:12;8.50;;;6.13;;
22713;SDS011;11524;50.846;4.326;2022-12-18T00:55:38;9.57;;;6.15;;
22713;SDS011;11524;50.846;4.326;2022-12-18T00:58:05;11.05;;;6.25;;
22713;SDS011;11524;50.846;4.326;2022-12-18T01:00:30;8.40;;;5.50;;
22713;SDS011;11524;50.846;4.326;2022-12-18T01:02:56;7.93;;;5.45;;
22713;SDS011;11524;50.846;4.326;2022-12-18T01:05:21;8.30;;;5.57;;
22713;SDS011;11524;50.846;4.326;2022-12-18T01:07:47;8.60;;;5.43;;
22713;SDS011;11524;50.846;4.326;2022-12-18T01:10:13;7.43;;;4.90;;
22713;SDS011;11524;50.846;4.326;2022-12-18T01:12:38;7.65;;;5.68;;
22713;SDS011;11524;50.846;4.326;2022-12-18T01:15:05;6.22;;;4.63;;
22713;SDS011;11524;50.846;4.326;2022-12-18T01:17:32;7.00;;;5.88;;
22713;SDS011;11524;50.846;4.326;2022-12-18T01:19:58;9.13;;;6.10;;
22713;SDS011;11524;50.846;4.326;2022-12-18T01:22:24;6.43;;;4.90;;
22713;SDS011;11524;50.846;4.326;2022-12-18T01:24:49;7.43;;;5.65;;
22713;SDS011;11524;50.846;4.326;2022-12-18T01:27:15;10.50;;;5.60;;
22713;SDS011;11524;50.846;4.326;2022-12-18T01:29:41;8.52;;;5.47;;
22713;SDS011;11524;50.846;4.326;2022-12-18T01:32:07;6.53;;;5.32;;
22713;SDS011;11524;50.846;4.326;2022-12-18T01:34:34;6.45;;;5.50;;
22713;SDS011;11524;50.846;4.326;2022-12-18T01:37:03;7.15;;;5.03;;
22713;SDS011;11524;50.846;4.326;2022-12-18T01:39:29;7.50;;;5.70;;
22713;SDS011;11524;50.846;4.326;2022-12-18T01:41:57;6.80;;;5.22;;
22713;SDS011;11524;50.846;4.326;2022-12-18T01:50:09;6.55;;;5.00;;
22713;SDS011;11524;50.846;4.326;2022-12-18T01:52:38;7.28;;;4.88;;
22713;SDS011;11524;50.846;4.326;2022-12-18T01:55:11;9.43;;;5.55;;
22713;SDS011;11524;50.846;4.326;2022-12-18T01:57:40;7.80;;;5.57;;
22713;SDS011;11524;50.846;4.326;2022-12-18T02:00:08;7.13;;;5.00;;
22713;SDS011;11524;50.846;4.326;2022-12-18T02:02:37;8.88;;;5.95;;
22713;SDS011;11524;50.846;4.326;2022-12-18T02:05:05;7.18;;;5.60;;
22713;SDS011;11524;50.846;4.326;2022-12-18T02:07:47;7.75;;;5.78;;
22713;SDS011;11524;50.846;4.326;2022-12-18T02:10:36;9.35;;;6.65;;
22713;SDS011;11524;50.846;4.326;2022-12-18T02:21:29;6.05;;;4.70;;
22713;SDS011;11524;50.846;4.326;2022-12-18T02:29:07;9.20;;;5.72;;
22713;SDS011;11524;50.846;4.326;2022-12-18T02:31:40;7.30;;;5.35;;
22713;SDS011;11524;50.846;4.326;2022-12-18T02:34:10;7.93;;;5.45;;
22713;SDS011;11524;50.846;4.326;2022-12-18T02:36:38;8.13;;;4.88;;
22713;SDS011;11524;50.846;4.326;2022-12-18T02:39:05;7.60;;;5.47;;
22713;SDS011;11524;50.846;4.326;2022-12-18T02:41:33;7.13;;;5.60;;
22713;SDS011;11524;50.846;4.326;2022-12-18T02:44:02;8.52;;;6.43;;
22713;SDS011;11524;50.846;4.326;2022-12-18T02:46:34;10.40;;;7.38;;
22713;SDS011;11524;50.846;4.326;2022-12-18T02:52:03;9.55;;;6.40;;
22713;SDS011;11524;50.846;4.326;2022-12-18T02:54:47;11.70;;;7.45;;
22713;SDS011;11524;50.846;4.326;2022-12-18T03:00:10;10.65;;;6.90;;
22713;SDS011;11524;50.846;4.326;2022-12-18T03:05:15;10.60;;;7.30;;
22713;SDS011;11524;50.846;4.326;2022-12-18T03:07:57;10.63;;;7.18;;
22713;SDS011;11524;50.846;4.326;2022-12-18T03:10:30;10.70;;;6.72;;
22713;SDS011;11524;50.846;4.326;2022-12-18T03:13:08;10.73;;;6.22;;
22713;SDS011;11524;50.846;4.326;2022-12-18T03:15:37;8.40;;;5.75;;
22713;SDS011;11524;50.846;4.326;2022-12-18T03:18:11;8.95;;;5.18;;
22713;SDS011;11524;50.846;4.326;2022-12-18T03:20:42;8.02;;;5.72;;
22713;SDS011;11524;50.846;4.326;2022-12-18T03:23:13;8.77;;;5.88;;
22713;SDS011;11524;50.846;4.326;2022-12-18T03:25:44;9.43;;;6.65;;
22713;SDS011;11524;50.846;4.326;2022-12-18T03:28:15;8.32;;;5.93;;
22713;SDS011;11524;50.846;4.326;2022-12-18T03:30:44;9.30;;;5.90;;
22713;SDS011;11524;50.846;4.326;2022-12-18T03:33:24;8.55;;;5.53;;
22713;SDS011;11524;50.846;4.326;2022-12-18T03:35:54;8.07;;;4.88;;
22713;SDS011;11524;50.846;4.326;2022-12-18T03:38:20;6.00;;;4.80;;
22713;SDS011;11524;50.846;4.326;2022-12-18T03:40:52;7.05;;;5.07;;
22713;SDS011;11524;50.846;4.326;2022-12-18T03:48:52;7.03;;;5.00;;
22713;SDS011;11524;50.846;4.326;2022-12-18T03:51:26;8.18;;;5.32;;
22713;SDS011;11524;50.846;4.326;2022-12-18T03:54:13;6.88;;;4.75;;
22713;SDS011;11524;50.846;4.326;2022-12-18T03:56:40;6.75;;;4.95;;
22713;SDS011;11524;50.846;4.326;2022-12-18T03:59:11;7.30;;;5.03;;
22713;SDS011;11524;50.846;4.326;2022-12-18T04:01:40;7.95;;;5.35;;
22713;SDS011;11524;50.846;4.326;2022-12-18T04:04:11;7.05;;;4.93;;
22713;SDS011;11524;50.846;4.326;2022-12-18T04:06:39;7.60;;;5.30;;
22713;SDS011;11524;50.846;4.326;2022-12-18T04:09:07;7.00;;;4.65;;
22713;SDS011;11524;50.846;4.326;2022-12-18T04:11:33;7.60;;;4.78;;
22713;SDS011;11524;50.846;4.326;2022-12-18T04:13:58;7.55;;;5.07;;
22713;SDS011;11524;50.846;4.326;2022-12-18T04:16:25;6.22;;;4.70;;
22713;SDS011;11524;50.846;4.326;2022-12-18T04:18:52;6.68;;;5.18;;
22713;SDS011;11524;50.846;4.326;2022-12-18T04:21:18;7.00;;;5.38;;
22713;SDS011;11524;50.846;4.326;2022-12-18T04:23:45;8.35;;;6.65;;
22713;SDS011;11524;50.846;4.326;2022-12-18T04:26:11;9.68;;;6.20;;
22713;SDS011;11524;50.846;4.326;2022-12-18T04:28:36;7.93;;;6.05;;
22713;SDS011;11524;50.846;4.326;2022-12-18T04:31:02;10.32;;;5.60;;
22713;SDS011;11524;50.846;4.326;2022-12-18T04:33:28;8.55;;;6.60;;
22713;SDS011;11524;50.846;4.326;2022-12-18T04:35:53;8.32;;;5.70;;
22713;SDS011;11524;50.846;4.326;2022-12-18T04:38:19;8.60;;;5.95;;
22713;SDS011;11524;50.846;4.326;2022-12-18T04:40:44;8.98;;;6.53;;
22713;SDS011;11524;50.846;4.326;2022-12-18T04:43:10;8.15;;;5.63;;
22713;SDS011;11524;50.846;4.326;2022-12-18T04:45:35;6.82;;;5.30;;
22713;SDS011;11524;50.846;4.326;2022-12-18T04:48:01;8.02;;;5.90;;
22713;SDS011;11524;50.846;4.326;2022-12-18T04:50:27;9.60;;;6.15;;
22713;SDS011;11524;50.846;4.326;2022-12-18T04:52:53;7.93;;;5.53;;
22713;SDS011;11524;50.846;4.326;2022-12-18T04:55:19;10.60;;;7.35;;
22713;SDS011;11524;50.846;4.326;2022-12-18T04:57:45;7.72;;;5.95;;
22713;SDS011;11524;50.846;4.326;2022-12-18T05:00:11;9.57;;;6.85;;
22713;SDS011;11524;50.846;4.326;2022-12-18T05:02:37;10.18;;;6.75;;
22713;SDS011;11524;50.846;4.326;2022-12-18T05:05:03;8.77;;;6.13;;
22713;SDS011;11524;50.846;4.326;2022-12-18T05:07:29;9.68;;;6.55;;
22713;SDS011;11524;50.846;4.326;2022-12-18T05:09:55;8.38;;;5.97;;
22713;SDS011;11524;50.846;4.326;2022-12-18T05:12:21;8.23;;;6.00;;
22713;SDS011;11524;50.846;4.326;2022-12-18T05:14:46;9.90;;;5.75;;
22713;SDS011;11524;50.846;4.326;2022-12-18T05:17:12;9.13;;;5.82;;
22713;SDS011;11524;50.846;4.326;2022-12-18T05:19:37;7.13;;;5.55;;
22713;SDS011;11524;50.846;4.326;2022-12-18T05:22:03;7.10;;;5.32;;
22713;SDS011;11524;50.846;4.326;2022-12-18T05:24:29;7.40;;;5.65;;
22713;SDS011;11524;50.846;4.326;2022-12-18T05:26:54;8.95;;;6.28;;
22713;SDS011;11524;50.846;4.326;2022-12-18T05:29:20;8.57;;;6.13;;
22713;SDS011;11524;50.846;4.326;2022-12-18T05:31:45;6.47;;;4.95;;
22713;SDS011;11524;50.846;4.326;2022-12-18T05:34:11;7.93;;;5.15;;
22713;SDS011;11524;50.846;4.326;2022-12-18T05:36:37;6.78;;;4.95;;
22713;SDS011;11524;50.846;4.326;2022-12-18T05:39:02;6.68;;;5.22;;
22713;SDS011;11524;50.846;4.326;2022-12-18T05:41:29;8.60;;;5.85;;
22713;SDS011;11524;50.846;4.326;2022-12-18T05:43:54;7.10;;;5.35;;
22713;SDS011;11524;50.846;4.326;2022-12-18T05:46:20;6.20;;;5.18;;
22713;SDS011;11524;50.846;4.326;2022-12-18T05:48:46;7.00;;;5.00;;
22713;SDS011;11524;50.846;4.326;2022-12-18T05:51:15;8.85;;;6.07;;
22713;SDS011;11524;50.846;4.326;2022-12-18T05:53:44;9.50;;;5.60;;
22713;SDS011;11524;50.846;4.326;2022-12-18T05:56:13;8.07;;;5.25;;
22713;SDS011;11524;50.846;4.326;2022-12-18T05:58:41;9.30;;;5.93;;
22713;SDS011;11524;50.846;4.326;2022-12-18T06:03:37;10.77;;;6.20;;
22713;SDS011;11524;50.846;4.326;2022-12-18T06:06:02;11.13;;;5.70;;
22713;SDS011;11524;50.846;4.326;2022-12-18T06:08:28;7.30;;;4.85;;
22713;SDS011;11524;50.846;4.326;2022-12-18T06:10:54;6.45;;;5.00;;
22713;SDS011;11524;50.846;4.326;2022-12-18T06:13:19;7.18;;;4.75;;
22713;SDS011;11524;50.846;4.326;2022-12-18T06:15:45;5.90;;;4.85;;
22713;SDS011;11524;50.846;4.326;2022-12-18T06:18:11;7.32;;;5.18;;
22713;SDS011;11524;50.846;4.326;2022-12-18T06:20:37;8.32;;;6.10;;
22713;SDS011;11524;50.846;4.326;2022-12-18T06:23:05;5.95;;;4.35;;
22713;SDS011;11524;50.846;4.326;2022-12-18T06:25:31;8.13;;;5.45;;
22713;SDS011;11524;50.846;4.326;2022-12-18T06:27:57;6.10;;;4.70;;
22713;SDS011;11524;50.846;4.326;2022-12-18T06:30:23;7.05;;;5.28;;
22713;SDS011;11524;50.846;4.326;2022-12-18T06:32:49;5.63;;;4.50;;
22713;SDS011;11524;50.846;4.326;2022-12-18T06:35:15;6.18;;;4.53;;
22713;SDS011;11524;50.846;4.326;2022-12-18T06:37:40;5.35;;;4.22;;
22713;SDS011;11524;50.846;4.326;2022-12-18T06:40:06;5.28;;;4.22;;
22713;SDS011;11524;50.846;4.326;2022-12-18T06:42:32;5.72;;;4.35;;
22713;SDS011;11524;50.846;4.326;2022-12-18T06:44:58;5.18;;;3.92;;
22713;SDS011;11524;50.846;4.326;2022-12-18T06:47:23;8.30;;;4.82;;
22713;SDS011;11524;50.846;4.326;2022-12-18T06:49:49;5.68;;;4.30;;
22713;SDS011;11524;50.846;4.326;2022-12-18T06:52:14;4.90;;;3.65;;
22713;SDS011;11524;50.846;4.326;2022-12-18T06:54:40;5.35;;;4.22;;
22713;SDS011;11524;50.846;4.326;2022-12-18T06:57:05;5.30;;;4.38;;
22713;SDS011;11524;50.846;4.326;2022-12-18T06:59:31;6.03;;;4.00;;
22713;SDS011;11524;50.846;4.326;2022-12-18T07:01:57;5.95;;;4.00;;
22713;SDS011;11524;50.846;4.326;2022-12-18T07:04:26;5.35;;;4.20;;
22713;SDS011;11524;50.846;4.326;2022-12-18T07:06:53;5.00;;;4.05;;
22713;SDS011;11524;50.846;4.326;2022-12-18T07:09:19;5.15;;;3.92;;
22713;SDS011;11524;50.846;4.326;2022-12-18T07:11:44;4.97;;;3.85;;
22713;SDS011;11524;50.846;4.326;2022-12-18T07:14:10;4.88;;;3.95;;
22713;SDS011;11524;50.846;4.326;2022-12-18T07:16:35;5.65;;;3.92;;
22713;SDS011;11524;50.846;4.326;2022-12-18T07:19:01;5.15;;;3.80;;
22713;SDS011;11524;50.846;4.326;2022-12-18T07:21:27;5.38;;;3.65;;
22713;SDS011;11524;50.846;4.326;2022-12-18T07:23:52;5.68;;;4.03;;
22713;SDS011;11524;50.846;4.326;2022-12-18T07:26:19;5.13;;;4.00;;
22713;SDS011;11524;50.846;4.326;2022-12-18T07:28:45;5.60;;;4.00;;
22713;SDS011;11524;50.846;4.326;2022-12-18T07:31:15;4.90;;;4.00;;
22713;SDS011;11524;50.846;4.326;2022-12-18T07:33:43;5.05;;;3.80;;
22713;SDS011;11524;50.846;4.326;2022-12-18T07:36:09;5.47;;;4.30;;
22713;SDS011;11524;50.846;4.326;2022-12-18T07:38:36;5.53;;;3.95;;
22713;SDS011;11524;50.846;4.326;2022-12-18T07:41:12;4.45;;;3.38;;
22713;SDS011;11524;50.846;4.326;2022-12-18T07:43:38;5.93;;;3.75;;
22713;SDS011;11524;50.846;4.326;2022-12-18T07:46:05;5.25;;;3.63;;
22713;SDS011;11524;50.846;4.326;2022-12-18T07:48:31;5.88;;;3.72;;
22713;SDS011;11524;50.846;4.326;2022-12-18T07:51:00;4.75;;;3.65;;
22713;SDS011;11524;50.846;4.326;2022-12-18T07:53:27;5.53;;;4.15;;
22713;SDS011;11524;50.846;4.326;2022-12-18T07:55:56;6.20;;;3.65;;
22713;SDS011;11524;50.846;4.326;2022-12-18T07:58:23;4.20;;;3.50;;
22713;SDS011;11524;50.846;4.326;2022-12-18T08:00:49;5.40;;;3.50;;
22713;SDS011;11524;50.846;4.326;2022-12-18T08:03:14;5.25;;;3.67;;
22713;SDS011;11524;50.846;4.326;2022-12-18T08:05:40;5.05;;;3.40;;
22713;SDS011;11524;50.846;4.326;2022-12-18T08:08:06;5.82;;;3.53;;
22713;SDS011;11524;50.846;4.326;2022-12-18T08:10:31;4.63;;;3.80;;
22713;SDS011;11524;50.846;4.326;2022-12-18T08:12:57;4.65;;;3.75;;
22713;SDS011;11524;50.846;4.326;2022-12-18T08:15:22;4.75;;;3.38;;
22713;SDS011;11524;50.846;4.326;2022-12-18T08:17:48;5.22;;;3.92;;
22713;SDS011;11524;50.846;4.326;2022-12-18T08:20:14;5.40;;;3.40;;
22713;SDS011;11524;50.846;4.326;2022-12-18T08:22:40;5.57;;;3.70;;
22713;SDS011;11524;50.846;4.326;2022-12-18T08:25:07;4.35;;;3.30;;
22713;SDS011;11524;50.846;4.326;2022-12-18T08:27:33;6.75;;;3.63;;
22713;SDS011;11524;50.846;4.326;2022-12-18T08:29:58;5.85;;;3.97;;
22713;SDS011;11524;50.846;4.326;2022-12-18T08:32:25;5.60;;;3.22;;
22713;SDS011;11524;50.846;4.326;2022-12-18T08:34:51;5.85;;;3.35;;
22713;SDS011;11524;50.846;4.326;2022-12-18T08:37:17;4.80;;;3.33;;
22713;SDS011;11524;50.846;4.326;2022-12-18T08:39:42;6.93;;;3.90;;
22713;SDS011;11524;50.846;4.326;2022-12-18T08:42:08;5.75;;;3.30;;
22713;SDS011;11524;50.846;4.326;2022-12-18T08:44:52;4.07;;;3.28;;
22713;SDS011;11524;50.846;4.326;2022-12-18T08:47:18;4.03;;;3.22;;
22713;SDS011;11524;50.846;4.326;2022-12-18T08:49:43;5.78;;;3.47;;
22713;SDS011;11524;50.846;4.326;2022-12-18T08:52:09;5.68;;;3.38;;
22713;SDS011;11524;50.846;4.326;2022-12-18T08:54:34;4.82;;;3.65;;
22713;SDS011;11524;50.846;4.326;2022-12-18T08:57:00;4.60;;;3.88;;
22713;SDS011;11524;50.846;4.326;2022-12-18T08:59:25;4.55;;;3.80;;
22713;SDS011;11524;50.846;4.326;2022-12-18T09:01:53;6.50;;;3.72;;
22713;SDS011;11524;50.846;4.326;2022-12-18T09:04:19;4.15;;;3.10;;
22713;SDS011;11524;50.846;4.326;2022-12-18T09:06:49;6.05;;;4.30;;
22713;SDS011;11524;50.846;4.326;2022-12-18T09:09:18;4.80;;;3.80;;
22713;SDS011;11524;50.846;4.326;2022-12-18T09:11:44;12.85;;;6.22;;
22713;SDS011;11524;50.846;4.326;2022-12-18T09:14:10;12.50;;;7.32;;
22713;SDS011;11524;50.846;4.326;2022-12-18T09:16:35;10.48;;;7.63;;
22713;SDS011;11524;50.846;4.326;2022-12-18T09:19:02;11.20;;;8.30;;
22713;SDS011;11524;50.846;4.326;2022-12-18T09:21:30;8.98;;;6.53;;
22713;SDS011;11524;50.846;4.326;2022-12-18T09:23:57;8.10;;;5.63;;
22713;SDS011;11524;50.846;4.326;2022-12-18T09:26:24;9.57;;;5.75;;
22713;SDS011;11524;50.846;4.326;2022-12-18T09:28:51;7.43;;;4.90;;
22713;SDS011;11524;50.846;4.326;2022-12-18T09:31:18;6.03;;;5.07;;
22713;SDS011;11524;50.846;4.326;2022-12-18T09:33:45;5.93;;;4.63;;
22713;SDS011;11524;50.846;4.326;2022-12-18T09:36:12;5.65;;;4.32;;
22713;SDS011;11524;50.846;4.326;2022-12-18T09:38:39;6.20;;;4.85;;
22713;SDS011;11524;50.846;4.326;2022-12-18T09:46:52;5.88;;;4.30;;
22713;SDS011;11524;50.846;4.326;2022-12-18T09:49:40;6.65;;;4.82;;
22713;SDS011;11524;50.846;4.326;2022-12-18T09:52:11;7.32;;;4.70;;
22713;SDS011;11524;50.846;4.326;2022-12-18T09:54:41;5.90;;;4.10;;
22713;SDS011;11524;50.846;4.326;2022-12-18T09:57:28;5.60;;;4.38;;
22713;SDS011;11524;50.846;4.326;2022-12-18T10:00:02;8.27;;;5.35;;
22713;SDS011;11524;50.846;4.326;2022-12-18T10:02:40;7.13;;;4.82;;
22713;SDS011;11524;50.846;4.326;2022-12-18T10:05:09;8.05;;;5.10;;
22713;SDS011;11524;50.846;4.326;2022-12-18T10:10:32;8.07;;;4.65;;
22713;SDS011;11524;50.846;4.326;2022-12-18T10:16:19;7.95;;;4.50;;
22713;SDS011;11524;50.846;4.326;2022-12-18T10:19:15;8.13;;;5.00;;
22713;SDS011;11524;50.846;4.326;2022-12-18T10:27:08;6.47;;;4.63;;
22713;SDS011;11524;50.846;4.326;2022-12-18T10:29:46;7.50;;;4.80;;
22713;SDS011;11524;50.846;4.326;2022-12-18T10:32:16;6.75;;;4.45;;
22713;SDS011;11524;50.846;4.326;2022-12-18T10:34:50;7.13;;;4.75;;
22713;SDS011;11524;50.846;4.326;2022-12-18T10:37:19;9.60;;;4.18;;
22713;SDS011;11524;50.846;4.326;2022-12-18T10:40:04;8.73;;;4.75;;
22713;SDS011;11524;50.846;4.326;2022-12-18T10:42:40;7.10;;;4.32;;
22713;SDS011;11524;50.846;4.326;2022-12-18T10:45:15;10.85;;;5.30;;
22713;SDS011;11524;50.846;4.326;2022-12-18T10:47:45;10.18;;;5.05;;
22713;SDS011;11524;50.846;4.326;2022-12-18T10:50:28;10.65;;;6.10;;
22713;SDS011;11524;50.846;4.326;2022-12-18T10:52:57;11.87;;;7.40;;
22713;SDS011;11524;50.846;4.326;2022-12-18T10:55:27;10.43;;;6.35;;
22713;SDS011;11524;50.846;4.326;2022-12-18T10:58:15;13.50;;;6.93;;
22713;SDS011;11524;50.846;4.326;2022-12-18T11:01:09;14.77;;;6.93;;
22713;SDS011;11524;50.846;4.326;2022-12-18T11:08:41;14.70;;;8.88;;
22713;SDS011;11524;50.846;4.326;2022-12-18T11:11:21;14.98;;;8.18;;
22713;SDS011;11524;50.846;4.326;2022-12-18T11:16:42;16.48;;;8.27;;
22713;SDS011;11524;50.846;4.326;2022-12-18T11:19:28;15.52;;;8.23;;
22713;SDS011;11524;50.846;4.326;2022-12-18T11:21:57;14.05;;;8.80;;
22713;SDS011;11524;50.846;4.326;2022-12-18T11:26:58;16.60;;;8.98;;
22713;SDS011;11524;50.846;4.326;2022-12-18T11:29:36;14.55;;;7.63;;
22713;SDS011;11524;50.846;4.326;2022-12-18T11:35:01;22.60;;;7.88;;
22713;SDS011;11524;50.846;4.326;2022-12-18T11:37:40;14.15;;;8.02;;
22713;SDS011;11524;50.846;4.326;2022-12-18T11:40:14;14.65;;;8.55;;
22713;SDS011;11524;50.846;4.326;2022-12-18T11:43:47;17.48;;;8.80;;
22713;SDS011;11524;50.846;4.326;2022-12-18T11:48:28;15.10;;;8.48;;
22713;SDS011;11524;50.846;4.326;2022-12-18T11:50:58;16.88;;;8.68;;
22713;SDS011;11524;50.846;4.326;2022-12-18T11:53:27;14.43;;;8.55;;
22713;SDS011;11524;50.846;4.326;2022-12-18T11:55:56;12.55;;;8.18;;
22713;SDS011;11524;50.846;4.326;2022-12-18T12:17:24;16.02;;;8.13;;
22713;SDS011;11524;50.846;4.326;2022-12-18T12:23:19;14.18;;;8.57;;
22713;SDS011;11524;50.846;4.326;2022-12-18T12:26:30;12.15;;;7.85;;
22713;SDS011;11524;50.846;4.326;2022-12-18T12:29:07;13.00;;;8.15;;
22713;SDS011;11524;50.846;4.326;2022-12-18T12:37:11;11.55;;;8.38;;
22713;SDS011;11524;50.846;4.326;2022-12-18T12:40:04;12.57;;;7.70;;
22713;SDS011;11524;50.846;4.326;2022-12-18T12:42:41;11.40;;;7.95;;
22713;SDS011;11524;50.846;4.326;2022-12-18T12:45:34;16.25;;;7.45;;
22713;SDS011;11524;50.846;4.326;2022-12-18T12:48:07;12.23;;;7.28;;
22713;SDS011;11524;50.846;4.326;2022-12-18T12:50:46;10.57;;;7.53;;
22713;SDS011;11524;50.846;4.326;2022-12-18T12:53:17;10.52;;;7.13;;
22713;SDS011;11524;50.846;4.326;2022-12-18T12:55:52;18.75;;;7.72;;
22713;SDS011;11524;50.846;4.326;2022-12-18T13:03:34;21.48;;;8.25;;
22713;SDS011;11524;50.846;4.326;2022-12-18T13:06:33;20.85;;;8.23;;
22713;SDS011;11524;50.846;4.326;2022-12-18T13:09:03;17.90;;;8.38;;
22713;SDS011;11524;50.846;4.326;2022-12-18T13:11:34;20.13;;;7.18;;
22713;SDS011;11524;50.846;4.326;2022-12-18T13:14:22;20.20;;;8.57;;
22713;SDS011;11524;50.846;4.326;2022-12-18T13:16:49;16.15;;;8.90;;
22713;SDS011;11524;50.846;4.326;2022-12-18T13:19:21;15.10;;;8.77;;
22713;SDS011;11524;50.846;4.326;2022-12-18T13:21:54;16.58;;;8.88;;
22713;SDS011;11524;50.846;4.326;2022-12-18T13:24:23;13.82;;;8.48;;
22713;SDS011;11524;50.846;4.326;2022-12-18T13:26:51;17.48;;;9.02;;
22713;SDS011;11524;50.846;4.326;2022-12-18T13:32:18;18.27;;;8.43;;
22713;SDS011;11524;50.846;4.326;2022-12-18T13:34:49;19.00;;;9.35;;
22713;SDS011;11524;50.846;4.326;2022-12-18T13:37:53;15.00;;;9.15;;
22713;SDS011;11524;50.846;4.326;2022-12-18T13:43:15;22.95;;;10.48;;
22713;SDS011;11524;50.846;4.326;2022-12-18T13:45:44;16.02;;;9.60;;
22713;SDS011;11524;50.846;4.326;2022-12-18T13:48:21;19.30;;;10.13;;
22713;SDS011;11524;50.846;4.326;2022-12-18T13:50:53;17.88;;;9.15;;
22713;SDS011;11524;50.846;4.326;2022-12-18T13:53:42;21.52;;;9.38;;
22713;SDS011;11524;50.846;4.326;2022-12-18T13:56:15;16.67;;;8.95;;
22713;SDS011;11524;50.846;4.326;2022-12-18T13:58:42;16.67;;;9.70;;
22713;SDS011;11524;50.846;4.326;2022-12-18T14:01:23;14.45;;;9.70;;
22713;SDS011;11524;50.846;4.326;2022-12-18T14:04:07;16.83;;;9.65;;
22713;SDS011;11524;50.846;4.326;2022-12-18T14:06:44;15.13;;;9.15;;
22713;SDS011;11524;50.846;4.326;2022-12-18T14:09:15;16.75;;;8.88;;
22713;SDS011;11524;50.846;4.326;2022-12-18T14:11:47;15.38;;;9.60;;
22713;SDS011;11524;50.846;4.326;2022-12-18T14:14:17;16.92;;;9.65;;
22713;SDS011;11524;50.846;4.326;2022-12-18T14:16:44;15.82;;;9.10;;
22713;SDS011;11524;50.846;4.326;2022-12-18T14:19:15;16.60;;;8.82;;
22713;SDS011;11524;50.846;4.326;2022-12-18T14:21:46;17.48;;;9.85;;
22713;SDS011;11524;50.846;4.326;2022-12-18T14:24:19;16.55;;;9.88;;
22713;SDS011;11524;50.846;4.326;2022-12-18T14:26:47;14.75;;;10.30;;
22713;SDS011;11524;50.846;4.326;2022-12-18T14:29:21;14.20;;;9.20;;
22713;SDS011;11524;50.846;4.326;2022-12-18T14:34:31;16.23;;;9.77;;
22713;SDS011;11524;50.846;4.326;2022-12-18T14:36:57;14.68;;;8.80;;
22713;SDS011;11524;50.846;4.326;2022-12-18T14:39:22;16.15;;;9.82;;
22713;SDS011;11524;50.846;4.326;2022-12-18T14:41:50;16.75;;;10.23;;
22713;SDS011;11524;50.846;4.326;2022-12-18T14:44:16;17.13;;;10.60;;
22713;SDS011;11524;50.846;4.326;2022-12-18T14:46:43;16.75;;;10.63;;
22713;SDS011;11524;50.846;4.326;2022-12-18T14:51:49;16.77;;;9.82;;
22713;SDS011;11524;50.846;4.326;2022-12-18T14:54:17;14.65;;;9.98;;
22713;SDS011;11524;50.846;4.326;2022-12-18T14:56:45;13.05;;;9.32;;
22713;SDS011;11524;50.846;4.326;2022-12-18T14:59:31;13.02;;;9.32;;
22713;SDS011;11524;50.846;4.326;2022-12-18T15:02:01;14.95;;;9.40;;
22713;SDS011;11524;50.846;4.326;2022-12-18T15:04:45;12.38;;;9.25;;
22713;SDS011;11524;50.846;4.326;2022-12-18T15:07:16;14.90;;;9.38;;
22713;SDS011;11524;50.846;4.326;2022-12-18T15:12:34;16.33;;;9.68;;
22713;SDS011;11524;50.846;4.326;2022-12-18T15:15:02;14.82;;;8.27;;
22713;SDS011;11524;50.846;4.326;2022-12-18T15:17:29;13.32;;;9.68;;
22713;SDS011;11524;50.846;4.326;2022-12-18T15:20:02;19.10;;;10.05;;
22713;SDS011;11524;50.846;4.326;2022-12-18T15:22:34;14.23;;;9.88;;
22713;SDS011;11524;50.846;4.326;2022-12-18T15:25:01;14.48;;;10.02;;
22713;SDS011;11524;50.846;4.326;2022-12-18T15:27:32;17.05;;;9.55;;
22713;SDS011;11524;50.846;4.326;2022-12-18T15:30:15;14.05;;;9.80;;
22713;SDS011;11524;50.846;4.326;2022-12-18T15:32:46;13.48;;;9.35;;
22713;SDS011;11524;50.846;4.326;2022-12-18T15:35:17;16.98;;;9.68;;
22713;SDS011;11524;50.846;4.326;2022-12-18T15:37:45;13.45;;;10.02;;
22713;SDS011;11524;50.846;4.326;2022-12-18T15:40:12;15.80;;;10.02;;
22713;SDS011;11524;50.846;4.326;2022-12-18T15:42:42;14.63;;;10.15;;
22713;SDS011;11524;50.846;4.326;2022-12-18T15:45:27;14.68;;;10.43;;
22713;SDS011;11524;50.846;4.326;2022-12-18T15:47:53;14.15;;;8.40;;
22713;SDS011;11524;50.846;4.326;2022-12-18T15:50:19;14.10;;;9.50;;
22713;SDS011;11524;50.846;4.326;2022-12-18T15:52:45;15.68;;;7.82;;
22713;SDS011;11524;50.846;4.326;2022-12-18T15:55:13;16.23;;;8.90;;
22713;SDS011;11524;50.846;4.326;2022-12-18T15:57:58;14.13;;;9.50;;
22713;SDS011;11524;50.846;4.326;2022-12-18T16:00:24;14.10;;;8.73;;
22713;SDS011;11524;50.846;4.326;2022-12-18T16:02:50;11.05;;;7.78;;
22713;SDS011;11524;50.846;4.326;2022-12-18T16:05:16;17.45;;;9.50;;
22713;SDS011;11524;50.846;4.326;2022-12-18T16:07:43;14.73;;;8.98;;
22713;SDS011;11524;50.846;4.326;2022-12-18T16:10:09;12.95;;;7.93;;
22713;SDS011;11524;50.846;4.326;2022-12-18T16:12:36;12.82;;;7.95;;
22713;SDS011;11524;50.846;4.326;2022-12-18T16:15:02;13.18;;;8.35;;
22713;SDS011;11524;50.846;4.326;2022-12-18T16:17:29;16.67;;;8.45;;
22713;SDS011;11524;50.846;4.326;2022-12-18T16:19:55;14.43;;;8.18;;
22713;SDS011;11524;50.846;4.326;2022-12-18T16:22:24;16.38;;;9.07;;
22713;SDS011;11524;50.846;4.326;2022-12-18T16:24:52;13.45;;;8.13;;
22713;SDS011;11524;50.846;4.326;2022-12-18T16:27:18;12.73;;;8.85;;
22713;SDS011;11524;50.846;4.326;2022-12-18T16:29:45;13.05;;;8.10;;
22713;SDS011;11524;50.846;4.326;2022-12-18T16:32:12;11.95;;;8.27;;
22713;SDS011;11524;50.846;4.326;2022-12-18T16:34:40;12.38;;;8.10;;
22713;SDS011;11524;50.846;4.326;2022-12-18T16:37:07;11.23;;;7.50;;
22713;SDS011;11524;50.846;4.326;2022-12-18T16:39:34;11.65;;;7.88;;
22713;SDS011;11524;50.846;4.326;2022-12-18T16:42:02;13.00;;;7.28;;
22713;SDS011;11524;50.846;4.326;2022-12-18T16:44:29;34.97;;;13.25;;
22713;SDS011;11524;50.846;4.326;2022-12-18T16:46:55;65.10;;;25.33;;
22713;SDS011;11524;50.846;4.326;2022-12-18T16:49:26;73.60;;;28.00;;
22713;SDS011;11524;50.846;4.326;2022-12-18T16:51:52;76.68;;;27.55;;